sensor_id;sensor_type;location;lat;lon;timestamp;pressure;altitude;pressure_sealevel;temperature;humidity
38616;BME280;24370;51.986;4.666;2023-05-23T00:01:32;102097.50;;;22.23;51.22
38616;BME280;24370;51.986;4.666;2023-05-23T00:03:57;102095.38;;;21.85;51.69
38616;BME280;24370;51.986;4.666;2023-05-23T00:06:23;102107.38;;;22.19;51.81
38616;BME280;24370;51.986;4.666;2023-05-23T00:08:48;102100.19;;;22.67;49.63
38616;BME280;24370;51.986;4.666;2023-05-23T00:11:14;102093.75;;;22.05;50.66
38616;BME280;24370;51.986;4.666;2023-05-23T00:13:40;102093.56;;;20.85;55.96
38616;BME280;24370;51.986;4.666;2023-05-23T00:16:05;102097.44;;;21.54;52.78
38616;BME280;24370;51.986;4.666;2023-05-23T00:18:40;102104.38;;;22.29;51.11
38616;BME280;24370;51.986;4.666;2023-05-23T00:21:07;102100.81;;;21.82;52.08
38616;BME280;24370;51.986;4.666;2023-05-23T00:23:33;102114.44;;;21.23;55.36
38616;BME280;24370;51.986;4.666;2023-05-23T00:25:59;102114.25;;;21.54;53.29
38616;BME280;24370;51.986;4.666;2023-05-23T00:28:24;102106.88;;;20.83;55.11
38616;BME280;24370;51.986;4.666;2023-05-23T00:30:50;102104.16;;;21.64;53.31
38616;BME280;24370;51.986;4.666;2023-05-23T00:33:16;102099.22;;;21.01;54.17
38616;BME280;24370;51.986;4.666;2023-05-23T00:35:46;102102.16;;;20.65;56.44
38616;BME280;24370;51.986;4.666;2023-05-23T00:38:11;102099.47;;;21.20;53.84
38616;BME280;24370;51.986;4.666;2023-05-23T00:40:36;102108.03;;;21.79;52.43
38616;BME280;24370;51.986;4.666;2023-05-23T00:43:02;102108.78;;;21.82;52.79
38616;BME280;24370;51.986;4.666;2023-05-23T00:45:27;102111.75;;;21.24;55.41
38616;BME280;24370;51.986;4.666;2023-05-23T00:47:53;102115.47;;;21.69;52.99
38616;BME280;24370;51.986;4.666;2023-05-23T00:50:19;102118.53;;;21.83;52.06
38616;BME280;24370;51.986;4.666;2023-05-23T00:52:47;102114.75;;;21.89;52.19
38616;BME280;24370;51.986;4.666;2023-05-23T00:55:13;102131.69;;;20.26;56.73
38616;BME280;24370;51.986;4.666;2023-05-23T00:57:39;102125.91;;;20.98;56.01
38616;BME280;24370;51.986;4.666;2023-05-23T01:00:15;102123.03;;;21.31;55.54
38616;BME280;24370;51.986;4.666;2023-05-23T01:02:44;102128.25;;;21.59;52.85
38616;BME280;24370;51.986;4.666;2023-05-23T01:05:10;102117.63;;;20.80;56.12
38616;BME280;24370;51.986;4.666;2023-05-23T01:07:39;102123.22;;;21.25;53.68
38616;BME280;24370;51.986;4.666;2023-05-23T01:10:05;102127.94;;;21.16;55.22
38616;BME280;24370;51.986;4.666;2023-05-23T01:14:08;102120.78;;;21.44;53.65
38616;BME280;24370;51.986;4.666;2023-05-23T01:16:05;102119.56;;;21.54;53.63
38616;BME280;24370;51.986;4.666;2023-05-23T01:18:55;102122.69;;;22.38;50.25
38616;BME280;24370;51.986;4.666;2023-05-23T01:21:24;102121.88;;;21.89;52.18
38616;BME280;24370;51.986;4.666;2023-05-23T01:29:27;102128.91;;;21.66;52.92
38616;BME280;24370;51.986;4.666;2023-05-23T01:31:56;102124.03;;;22.70;48.84
38616;BME280;24370;51.986;4.666;2023-05-23T01:34:23;102120.00;;;22.14;49.88
38616;BME280;24370;51.986;4.666;2023-05-23T01:36:49;102124.31;;;22.42;50.60
38616;BME280;24370;51.986;4.666;2023-05-23T01:39:18;102123.81;;;22.55;49.42
38616;BME280;24370;51.986;4.666;2023-05-23T01:41:43;102128.09;;;22.59;48.90
38616;BME280;24370;51.986;4.666;2023-05-23T01:44:08;102125.00;;;21.76;49.66
38616;BME280;24370;51.986;4.666;2023-05-23T01:46:34;102131.25;;;22.46;48.69
38616;BME280;24370;51.986;4.666;2023-05-23T01:49:09;102124.16;;;22.90;48.04
38616;BME280;24370;51.986;4.666;2023-05-23T01:51:36;102122.31;;;22.92;48.06
38616;BME280;24370;51.986;4.666;2023-05-23T01:54:02;102132.53;;;22.12;49.34
38616;BME280;24370;51.986;4.666;2023-05-23T01:56:28;102132.78;;;22.28;48.73
38616;BME280;24370;51.986;4.666;2023-05-23T01:58:54;102133.22;;;22.63;47.99
38616;BME280;24370;51.986;4.666;2023-05-23T02:01:20;102136.59;;;23.73;44.93
38616;BME280;24370;51.986;4.666;2023-05-23T02:03:45;102131.75;;;22.78;46.16
38616;BME280;24370;51.986;4.666;2023-05-23T02:06:11;102132.09;;;21.99;48.33
38616;BME280;24370;51.986;4.666;2023-05-23T02:08:36;102133.25;;;23.06;46.09
38616;BME280;24370;51.986;4.666;2023-05-23T02:11:02;102129.66;;;22.17;48.03
38616;BME280;24370;51.986;4.666;2023-05-23T02:13:27;102132.41;;;22.61;47.27
38616;BME280;24370;51.986;4.666;2023-05-23T02:15:53;102138.41;;;22.88;45.87
38616;BME280;24370;51.986;4.666;2023-05-23T02:18:19;102134.88;;;23.51;45.17
38616;BME280;24370;51.986;4.666;2023-05-23T02:20:44;102136.41;;;21.55;49.21
38616;BME280;24370;51.986;4.666;2023-05-23T02:23:10;102136.81;;;22.40;47.49
38616;BME280;24370;51.986;4.666;2023-05-23T02:25:35;102143.81;;;22.43;47.49
38616;BME280;24370;51.986;4.666;2023-05-23T02:28:01;102147.13;;;21.51;49.17
38616;BME280;24370;51.986;4.666;2023-05-23T02:30:26;102141.75;;;22.94;46.22
38616;BME280;24370;51.986;4.666;2023-05-23T02:32:51;102147.91;;;21.80;48.72
38616;BME280;24370;51.986;4.666;2023-05-23T02:35:17;102154.13;;;21.56;49.88
38616;BME280;24370;51.986;4.666;2023-05-23T02:37:42;102152.38;;;21.55;48.97
38616;BME280;24370;51.986;4.666;2023-05-23T02:40:08;102162.34;;;21.73;48.80
38616;BME280;24370;51.986;4.666;2023-05-23T02:42:33;102168.22;;;20.47;51.82
38616;BME280;24370;51.986;4.666;2023-05-23T02:44:59;102171.25;;;20.35;52.16
38616;BME280;24370;51.986;4.666;2023-05-23T02:47:24;102165.56;;;21.58;49.75
38616;BME280;24370;51.986;4.666;2023-05-23T02:49:50;102182.81;;;20.91;51.64
38616;BME280;24370;51.986;4.666;2023-05-23T02:52:15;102176.63;;;21.18;49.40
38616;BME280;24370;51.986;4.666;2023-05-23T02:54:41;102170.88;;;21.04;49.79
38616;BME280;24370;51.986;4.666;2023-05-23T02:57:06;102181.34;;;20.52;51.42
38616;BME280;24370;51.986;4.666;2023-05-23T02:59:32;102184.03;;;20.50;50.77
38616;BME280;24370;51.986;4.666;2023-05-23T03:01:57;102185.97;;;20.15;51.86
38616;BME280;24370;51.986;4.666;2023-05-23T03:04:22;102176.16;;;20.17;51.38
38616;BME280;24370;51.986;4.666;2023-05-23T03:06:48;102179.22;;;20.35;50.76
38616;BME280;24370;51.986;4.666;2023-05-23T03:09:14;102180.22;;;20.61;49.50
38616;BME280;24370;51.986;4.666;2023-05-23T03:11:41;102174.50;;;21.55;48.10
38616;BME280;24370;51.986;4.666;2023-05-23T03:14:07;102181.41;;;21.34;48.94
38616;BME280;24370;51.986;4.666;2023-05-23T03:16:32;102186.84;;;21.31;48.04
38616;BME280;24370;51.986;4.666;2023-05-23T03:18:58;102183.56;;;20.38;50.25
38616;BME280;24370;51.986;4.666;2023-05-23T03:21:23;102186.66;;;20.82;49.70
38616;BME280;24370;51.986;4.666;2023-05-23T03:23:49;102179.25;;;21.45;47.26
38616;BME280;24370;51.986;4.666;2023-05-23T03:26:14;102175.56;;;21.76;46.91
38616;BME280;24370;51.986;4.666;2023-05-23T03:28:40;102187.53;;;20.23;49.30
38616;BME280;24370;51.986;4.666;2023-05-23T03:31:05;102184.53;;;21.97;47.46
38616;BME280;24370;51.986;4.666;2023-05-23T03:33:31;102188.97;;;21.19;48.48
38616;BME280;24370;51.986;4.666;2023-05-23T03:35:56;102177.84;;;21.35;47.88
38616;BME280;24370;51.986;4.666;2023-05-23T03:38:22;102188.25;;;21.41;46.69
38616;BME280;24370;51.986;4.666;2023-05-23T03:40:47;102187.16;;;21.22;48.29
38616;BME280;24370;51.986;4.666;2023-05-23T03:43:12;102192.19;;;21.02;47.75
38616;BME280;24370;51.986;4.666;2023-05-23T03:45:41;102197.38;;;21.34;47.13
38616;BME280;24370;51.986;4.666;2023-05-23T03:48:07;102192.75;;;20.86;47.64
38616;BME280;24370;51.986;4.666;2023-05-23T03:50:32;102202.31;;;20.91;47.21
38616;BME280;24370;51.986;4.666;2023-05-23T03:52:58;102206.63;;;20.36;48.42
38616;BME280;24370;51.986;4.666;2023-05-23T03:55:23;102205.25;;;21.10;47.68
38616;BME280;24370;51.986;4.666;2023-05-23T03:57:50;102201.81;;;21.33;46.34
38616;BME280;24370;51.986;4.666;2023-05-23T04:00:18;102210.19;;;20.64;47.49
38616;BME280;24370;51.986;4.666;2023-05-23T04:02:45;102204.75;;;21.26;46.09
38616;BME280;24370;51.986;4.666;2023-05-23T04:05:11;102206.88;;;21.68;45.26
38616;BME280;24370;51.986;4.666;2023-05-23T04:07:37;102224.28;;;20.05;49.03
38616;BME280;24370;51.986;4.666;2023-05-23T04:10:07;102216.72;;;21.39;45.81
38616;BME280;24370;51.986;4.666;2023-05-23T04:12:33;102233.13;;;20.97;45.83
38616;BME280;24370;51.986;4.666;2023-05-23T04:14:59;102230.75;;;20.88;46.01
38616;BME280;24370;51.986;4.666;2023-05-23T04:17:24;102232.84;;;20.46;47.71
38616;BME280;24370;51.986;4.666;2023-05-23T04:19:55;102242.41;;;19.91;47.89
38616;BME280;24370;51.986;4.666;2023-05-23T04:22:20;102239.59;;;20.58;46.97
38616;BME280;24370;51.986;4.666;2023-05-23T04:24:46;102240.28;;;19.69;47.74
38616;BME280;24370;51.986;4.666;2023-05-23T04:27:11;102237.38;;;19.78;46.69
38616;BME280;24370;51.986;4.666;2023-05-23T04:29:38;102243.78;;;20.04;47.92
38616;BME280;24370;51.986;4.666;2023-05-23T04:32:06;102241.19;;;20.34;47.11
38616;BME280;24370;51.986;4.666;2023-05-23T04:34:32;102242.47;;;20.50;45.65
38616;BME280;24370;51.986;4.666;2023-05-23T04:36:59;102239.00;;;20.48;45.66
38616;BME280;24370;51.986;4.666;2023-05-23T04:39:26;102245.34;;;19.80;46.99
38616;BME280;24370;51.986;4.666;2023-05-23T04:41:51;102259.84;;;21.21;44.11
38616;BME280;24370;51.986;4.666;2023-05-23T04:44:18;102256.31;;;19.99;46.72
38616;BME280;24370;51.986;4.666;2023-05-23T04:46:44;102261.03;;;20.21;45.27
38616;BME280;24370;51.986;4.666;2023-05-23T04:49:10;102255.94;;;20.13;46.67
38616;BME280;24370;51.986;4.666;2023-05-23T04:51:37;102265.88;;;20.97;44.35
38616;BME280;24370;51.986;4.666;2023-05-23T04:54:02;102268.66;;;20.00;46.17
38616;BME280;24370;51.986;4.666;2023-05-23T04:56:28;102267.31;;;20.16;45.64
38616;BME280;24370;51.986;4.666;2023-05-23T04:58:54;102276.88;;;20.24;46.45
38616;BME280;24370;51.986;4.666;2023-05-23T05:01:20;102271.25;;;20.34;45.53
38616;BME280;24370;51.986;4.666;2023-05-23T05:03:49;102279.72;;;20.80;45.25
38616;BME280;24370;51.986;4.666;2023-05-23T05:06:15;102286.84;;;19.07;47.50
38616;BME280;24370;51.986;4.666;2023-05-23T05:08:41;102285.31;;;21.28;44.06
38616;BME280;24370;51.986;4.666;2023-05-23T05:11:08;102282.94;;;20.90;43.92
38616;BME280;24370;51.986;4.666;2023-05-23T05:13:33;102296.59;;;21.08;43.76
38616;BME280;24370;51.986;4.666;2023-05-23T05:15:59;102294.78;;;20.48;44.51
38616;BME280;24370;51.986;4.666;2023-05-23T05:18:25;102295.34;;;20.60;44.22
38616;BME280;24370;51.986;4.666;2023-05-23T05:20:51;102297.41;;;20.80;43.26
38616;BME280;24370;51.986;4.666;2023-05-23T05:23:17;102304.88;;;20.03;44.94
38616;BME280;24370;51.986;4.666;2023-05-23T05:25:42;102302.94;;;19.73;46.18
38616;BME280;24370;51.986;4.666;2023-05-23T05:28:08;102315.34;;;20.73;44.06
38616;BME280;24370;51.986;4.666;2023-05-23T05:30:33;102309.72;;;20.53;43.89
38616;BME280;24370;51.986;4.666;2023-05-23T05:33:02;102313.78;;;20.33;44.54
38616;BME280;24370;51.986;4.666;2023-05-23T05:35:32;102311.38;;;20.57;43.10
38616;BME280;24370;51.986;4.666;2023-05-23T05:37:58;102309.72;;;21.12;42.86
38616;BME280;24370;51.986;4.666;2023-05-23T05:40:23;102313.88;;;19.22;45.30
38616;BME280;24370;51.986;4.666;2023-05-23T05:42:49;102316.50;;;19.97;44.45
38616;BME280;24370;51.986;4.666;2023-05-23T05:45:15;102319.16;;;19.61;45.15
38616;BME280;24370;51.986;4.666;2023-05-23T05:47:40;102325.50;;;21.18;42.74
38616;BME280;24370;51.986;4.666;2023-05-23T05:50:06;102326.03;;;20.70;42.96
38616;BME280;24370;51.986;4.666;2023-05-23T05:52:35;102331.56;;;20.94;42.99
38616;BME280;24370;51.986;4.666;2023-05-23T05:55:05;102329.78;;;19.97;44.67
38616;BME280;24370;51.986;4.666;2023-05-23T05:57:31;102333.97;;;20.39;44.16
38616;BME280;24370;51.986;4.666;2023-05-23T05:59:57;102324.13;;;21.05;42.83
38616;BME280;24370;51.986;4.666;2023-05-23T06:02:22;102331.63;;;21.21;42.54
38616;BME280;24370;51.986;4.666;2023-05-23T06:04:47;102331.81;;;21.98;41.65
38616;BME280;24370;51.986;4.666;2023-05-23T06:07:13;102334.53;;;20.51;43.60
38616;BME280;24370;51.986;4.666;2023-05-23T06:09:38;102333.66;;;20.82;44.22
38616;BME280;24370;51.986;4.666;2023-05-23T06:12:04;102340.16;;;20.39;45.19
38616;BME280;24370;51.986;4.666;2023-05-23T06:14:29;102340.75;;;19.45;47.50
38616;BME280;24370;51.986;4.666;2023-05-23T06:16:55;102340.25;;;20.67;44.49
38616;BME280;24370;51.986;4.666;2023-05-23T06:19:20;102345.28;;;20.45;45.81
38616;BME280;24370;51.986;4.666;2023-05-23T06:21:45;102340.63;;;20.87;44.94
38616;BME280;24370;51.986;4.666;2023-05-23T06:24:11;102355.31;;;19.65;47.84
38616;BME280;24370;51.986;4.666;2023-05-23T06:26:36;102344.25;;;19.07;49.16
38616;BME280;24370;51.986;4.666;2023-05-23T06:29:03;102351.91;;;19.21;48.96
38616;BME280;24370;51.986;4.666;2023-05-23T06:31:31;102345.03;;;19.89;47.57
38616;BME280;24370;51.986;4.666;2023-05-23T06:33:56;102356.78;;;19.00;49.08
38616;BME280;24370;51.986;4.666;2023-05-23T06:36:22;102358.56;;;20.12;47.60
38616;BME280;24370;51.986;4.666;2023-05-23T06:38:47;102355.41;;;19.98;47.44
38616;BME280;24370;51.986;4.666;2023-05-23T06:41:13;102355.47;;;21.24;45.10
38616;BME280;24370;51.986;4.666;2023-05-23T06:43:38;102356.41;;;20.93;45.84
38616;BME280;24370;51.986;4.666;2023-05-23T06:46:06;102355.72;;;20.53;46.47
38616;BME280;24370;51.986;4.666;2023-05-23T06:48:32;102355.78;;;21.71;44.58
38616;BME280;24370;51.986;4.666;2023-05-23T06:50:57;102354.84;;;20.86;45.16
38616;BME280;24370;51.986;4.666;2023-05-23T06:53:23;102356.00;;;21.35;45.35
38616;BME280;24370;51.986;4.666;2023-05-23T06:55:48;102360.78;;;21.24;44.21
38616;BME280;24370;51.986;4.666;2023-05-23T06:58:13;102360.72;;;20.97;44.56
38616;BME280;24370;51.986;4.666;2023-05-23T07:00:39;102360.91;;;21.49;45.11
38616;BME280;24370;51.986;4.666;2023-05-23T07:03:06;102363.41;;;20.31;45.99
38616;BME280;24370;51.986;4.666;2023-05-23T07:05:31;102361.31;;;20.42;45.13
38616;BME280;24370;51.986;4.666;2023-05-23T07:07:58;102375.16;;;21.46;43.39
38616;BME280;24370;51.986;4.666;2023-05-23T07:10:24;102377.91;;;20.17;45.12
38616;BME280;24370;51.986;4.666;2023-05-23T07:12:50;102377.34;;;21.62;42.65
38616;BME280;24370;51.986;4.666;2023-05-23T07:15:16;102374.84;;;21.57;41.86
38616;BME280;24370;51.986;4.666;2023-05-23T07:17:41;102375.13;;;21.76;40.91
38616;BME280;24370;51.986;4.666;2023-05-23T07:20:07;102372.63;;;23.45;38.18
38616;BME280;24370;51.986;4.666;2023-05-23T07:22:32;102370.16;;;24.86;36.20
38616;BME280;24370;51.986;4.666;2023-05-23T07:24:58;102366.19;;;24.76;34.38
38616;BME280;24370;51.986;4.666;2023-05-23T07:27:25;102375.94;;;24.96;33.07
38616;BME280;24370;51.986;4.666;2023-05-23T07:29:50;102371.41;;;24.79;32.47
38616;BME280;24370;51.986;4.666;2023-05-23T07:32:15;102388.31;;;25.93;30.44
38616;BME280;24370;51.986;4.666;2023-05-23T07:34:41;102379.28;;;25.01;31.52
38616;BME280;24370;51.986;4.666;2023-05-23T07:37:07;102384.94;;;24.35;31.43
38616;BME280;24370;51.986;4.666;2023-05-23T07:39:32;102388.09;;;24.84;31.24
38616;BME280;24370;51.986;4.666;2023-05-23T07:41:57;102392.09;;;26.23;29.84
38616;BME280;24370;51.986;4.666;2023-05-23T07:44:23;102399.59;;;23.60;33.05
38616;BME280;24370;51.986;4.666;2023-05-23T07:46:48;102397.69;;;23.17;34.15
38616;BME280;24370;51.986;4.666;2023-05-23T07:49:14;102387.97;;;25.64;29.19
38616;BME280;24370;51.986;4.666;2023-05-23T07:51:39;102393.16;;;24.90;31.14
38616;BME280;24370;51.986;4.666;2023-05-23T07:54:05;102388.69;;;24.91;30.15
38616;BME280;24370;51.986;4.666;2023-05-23T07:56:31;102396.94;;;25.24;30.92
38616;BME280;24370;51.986;4.666;2023-05-23T07:58:56;102400.03;;;24.56;30.95
38616;BME280;24370;51.986;4.666;2023-05-23T08:01:21;102407.91;;;24.39;31.19
38616;BME280;24370;51.986;4.666;2023-05-23T08:03:49;102405.19;;;25.01;31.32
38616;BME280;24370;51.986;4.666;2023-05-23T08:06:15;102390.91;;;23.32;32.37
38616;BME280;24370;51.986;4.666;2023-05-23T08:08:40;102394.47;;;25.01;30.20
38616;BME280;24370;51.986;4.666;2023-05-23T08:11:08;102393.31;;;25.06;31.50
38616;BME280;24370;51.986;4.666;2023-05-23T08:13:33;102396.63;;;26.23;29.05
38616;BME280;24370;51.986;4.666;2023-05-23T08:15:58;102400.84;;;26.96;28.48
38616;BME280;24370;51.986;4.666;2023-05-23T08:18:24;102408.16;;;26.58;29.07
38616;BME280;24370;51.986;4.666;2023-05-23T08:20:49;102415.38;;;25.86;29.47
38616;BME280;24370;51.986;4.666;2023-05-23T08:23:14;102423.13;;;24.58;31.63
38616;BME280;24370;51.986;4.666;2023-05-23T08:25:42;102412.31;;;26.64;29.29
38616;BME280;24370;51.986;4.666;2023-05-23T08:28:07;102418.63;;;24.99;30.89
38616;BME280;24370;51.986;4.666;2023-05-23T08:30:33;102421.41;;;24.56;30.87
38616;BME280;24370;51.986;4.666;2023-05-23T08:32:58;102422.16;;;25.94;29.75
38616;BME280;24370;51.986;4.666;2023-05-23T08:35:25;102425.34;;;24.48;31.25
38616;BME280;24370;51.986;4.666;2023-05-23T08:37:50;102416.09;;;24.76;31.38
38616;BME280;24370;51.986;4.666;2023-05-23T08:40:20;102417.28;;;24.89;31.49
38616;BME280;24370;51.986;4.666;2023-05-23T08:42:47;102413.47;;;23.92;32.29
38616;BME280;24370;51.986;4.666;2023-05-23T08:45:13;102427.88;;;24.30;31.83
38616;BME280;24370;51.986;4.666;2023-05-23T08:47:41;102419.81;;;24.52;31.77
38616;BME280;24370;51.986;4.666;2023-05-23T08:50:07;102425.22;;;23.86;32.42
38616;BME280;24370;51.986;4.666;2023-05-23T08:52:34;102421.19;;;26.31;29.94
38616;BME280;24370;51.986;4.666;2023-05-23T08:55:01;102415.53;;;24.69;30.63
38616;BME280;24370;51.986;4.666;2023-05-23T08:57:27;102423.56;;;24.69;31.36
38616;BME280;24370;51.986;4.666;2023-05-23T08:59:55;102432.56;;;23.81;31.72
38616;BME280;24370;51.986;4.666;2023-05-23T09:02:21;102433.69;;;24.19;32.07
38616;BME280;24370;51.986;4.666;2023-05-23T09:04:46;102436.09;;;24.46;31.26
38616;BME280;24370;51.986;4.666;2023-05-23T09:07:14;102432.78;;;25.20;30.32
38616;BME280;24370;51.986;4.666;2023-05-23T09:09:41;102435.38;;;25.79;30.94
38616;BME280;24370;51.986;4.666;2023-05-23T09:12:06;102434.31;;;27.54;28.01
38616;BME280;24370;51.986;4.666;2023-05-23T09:14:32;102433.38;;;27.21;26.96
38616;BME280;24370;51.986;4.666;2023-05-23T09:17:01;102452.91;;;25.67;28.51
38616;BME280;24370;51.986;4.666;2023-05-23T09:19:32;102446.06;;;26.68;28.46
38616;BME280;24370;51.986;4.666;2023-05-23T09:22:01;102446.06;;;25.03;29.16
38616;BME280;24370;51.986;4.666;2023-05-23T09:24:34;102450.16;;;25.31;29.48
38616;BME280;24370;51.986;4.666;2023-05-23T09:27:00;102444.31;;;25.22;29.98
38616;BME280;24370;51.986;4.666;2023-05-23T09:29:26;102447.28;;;25.91;29.46
38616;BME280;24370;51.986;4.666;2023-05-23T09:31:59;102460.13;;;25.84;28.43
38616;BME280;24370;51.986;4.666;2023-05-23T09:34:24;102451.44;;;25.79;28.09
38616;BME280;24370;51.986;4.666;2023-05-23T09:36:54;102451.59;;;24.79;29.33
38616;BME280;24370;51.986;4.666;2023-05-23T09:39:19;102462.56;;;24.94;29.23
38616;BME280;24370;51.986;4.666;2023-05-23T09:41:47;102453.88;;;24.88;29.37
38616;BME280;24370;51.986;4.666;2023-05-23T09:44:13;102451.38;;;26.52;28.28
38616;BME280;24370;51.986;4.666;2023-05-23T09:46:38;102456.81;;;27.67;27.08
38616;BME280;24370;51.986;4.666;2023-05-23T09:49:15;102455.16;;;26.48;27.12
38616;BME280;24370;51.986;4.666;2023-05-23T09:51:41;102454.03;;;26.87;27.49
38616;BME280;24370;51.986;4.666;2023-05-23T09:54:07;102456.66;;;26.19;26.93
38616;BME280;24370;51.986;4.666;2023-05-23T09:56:33;102454.28;;;26.83;27.67
38616;BME280;24370;51.986;4.666;2023-05-23T09:59:01;102454.94;;;26.35;27.52
38616;BME280;24370;51.986;4.666;2023-05-23T10:01:29;102459.28;;;26.38;28.27
38616;BME280;24370;51.986;4.666;2023-05-23T10:03:56;102456.13;;;27.80;27.02
38616;BME280;24370;51.986;4.666;2023-05-23T10:06:45;102461.88;;;28.34;27.06
38616;BME280;24370;51.986;4.666;2023-05-23T10:09:16;102472.66;;;26.20;28.98
38616;BME280;24370;51.986;4.666;2023-05-23T10:15:12;102468.66;;;26.47;26.94
38616;BME280;24370;51.986;4.666;2023-05-23T10:20:14;102473.91;;;26.66;28.54
38616;BME280;24370;51.986;4.666;2023-05-23T10:22:41;102477.34;;;25.21;30.71
38616;BME280;24370;51.986;4.666;2023-05-23T10:25:07;102476.47;;;24.61;30.89
38616;BME280;24370;51.986;4.666;2023-05-23T10:27:38;102467.69;;;26.30;30.21
38616;BME280;24370;51.986;4.666;2023-05-23T10:30:05;102474.25;;;26.24;29.86
38616;BME280;24370;51.986;4.666;2023-05-23T10:32:32;102486.03;;;26.03;30.57
38616;BME280;24370;51.986;4.666;2023-05-23T10:35:46;102481.31;;;24.92;31.49
38616;BME280;24370;51.986;4.666;2023-05-23T10:37:48;102468.88;;;25.51;30.92
38616;BME280;24370;51.986;4.666;2023-05-23T10:40:30;102487.03;;;25.24;31.08
38616;BME280;24370;51.986;4.666;2023-05-23T10:43:07;102494.91;;;24.87;32.05
38616;BME280;24370;51.986;4.666;2023-05-23T10:45:41;102485.75;;;26.09;30.27
38616;BME280;24370;51.986;4.666;2023-05-23T10:51:12;102494.75;;;22.88;33.25
38616;BME280;24370;51.986;4.666;2023-05-23T10:53:45;102486.84;;;23.81;33.31
38616;BME280;24370;51.986;4.666;2023-05-23T10:56:22;102479.09;;;25.61;30.97
38616;BME280;24370;51.986;4.666;2023-05-23T10:58:54;102477.81;;;24.92;30.50
38616;BME280;24370;51.986;4.666;2023-05-23T11:01:20;102486.56;;;24.54;31.59
38616;BME280;24370;51.986;4.666;2023-05-23T11:06:31;102484.00;;;26.08;29.35
38616;BME280;24370;51.986;4.666;2023-05-23T11:14:51;102483.63;;;27.19;30.04
38616;BME280;24370;51.986;4.666;2023-05-23T11:17:28;102480.06;;;26.85;28.74
38616;BME280;24370;51.986;4.666;2023-05-23T11:20:04;102471.81;;;29.07;26.08
38616;BME280;24370;51.986;4.666;2023-05-23T11:22:31;102479.34;;;27.65;27.02
38616;BME280;24370;51.986;4.666;2023-05-23T11:24:58;102487.28;;;27.01;27.39
38616;BME280;24370;51.986;4.666;2023-05-23T11:27:34;102481.69;;;25.62;28.81
38616;BME280;24370;51.986;4.666;2023-05-23T11:30:16;102475.81;;;28.26;26.42
38616;BME280;24370;51.986;4.666;2023-05-23T11:32:48;102495.97;;;26.88;28.05
38616;BME280;24370;51.986;4.666;2023-05-23T11:35:15;102490.19;;;25.72;29.37
38616;BME280;24370;51.986;4.666;2023-05-23T11:37:40;102498.69;;;26.36;28.93
38616;BME280;24370;51.986;4.666;2023-05-23T11:42:50;102496.72;;;25.08;30.13
38616;BME280;24370;51.986;4.666;2023-05-23T11:45:18;102496.97;;;25.41;29.98
38616;BME280;24370;51.986;4.666;2023-05-23T11:47:44;102494.47;;;25.76;29.82
38616;BME280;24370;51.986;4.666;2023-05-23T11:50:09;102505.25;;;24.11;31.67
38616;BME280;24370;51.986;4.666;2023-05-23T11:52:35;102495.72;;;24.04;31.34
38616;BME280;24370;51.986;4.666;2023-05-23T11:55:00;102503.38;;;24.56;31.26
38616;BME280;24370;51.986;4.666;2023-05-23T11:57:26;102498.81;;;25.40;29.74
38616;BME280;24370;51.986;4.666;2023-05-23T11:59:52;102504.44;;;25.53;29.70
38616;BME280;24370;51.986;4.666;2023-05-23T12:02:19;102500.22;;;26.05;29.20
38616;BME280;24370;51.986;4.666;2023-05-23T12:04:45;102501.59;;;26.49;29.49
38616;BME280;24370;51.986;4.666;2023-05-23T12:07:10;102510.03;;;24.68;30.64
38616;BME280;24370;51.986;4.666;2023-05-23T12:09:43;102498.00;;;25.18;29.49
38616;BME280;24370;51.986;4.666;2023-05-23T12:12:08;102496.34;;;24.53;31.23
38616;BME280;24370;51.986;4.666;2023-05-23T12:14:34;102503.63;;;24.93;30.24
38616;BME280;24370;51.986;4.666;2023-05-23T12:17:00;102501.75;;;25.14;29.71
38616;BME280;24370;51.986;4.666;2023-05-23T12:19:25;102501.50;;;24.37;31.10
38616;BME280;24370;51.986;4.666;2023-05-23T12:21:51;102509.59;;;23.92;31.55
38616;BME280;24370;51.986;4.666;2023-05-23T12:24:18;102508.22;;;24.03;31.55
38616;BME280;24370;51.986;4.666;2023-05-23T12:29:18;102511.75;;;25.10;30.34
38616;BME280;24370;51.986;4.666;2023-05-23T12:31:43;102515.06;;;23.88;32.34
38616;BME280;24370;51.986;4.666;2023-05-23T12:34:10;102503.88;;;24.01;31.88
38616;BME280;24370;51.986;4.666;2023-05-23T12:36:36;102506.75;;;25.80;30.07
38616;BME280;24370;51.986;4.666;2023-05-23T12:39:04;102501.34;;;25.63;30.63
38616;BME280;24370;51.986;4.666;2023-05-23T12:41:33;102511.94;;;24.21;31.13
38616;BME280;24370;51.986;4.666;2023-05-23T12:43:59;102503.72;;;24.48;31.77
38616;BME280;24370;51.986;4.666;2023-05-23T12:46:26;102498.94;;;24.77;30.64
38616;BME280;24370;51.986;4.666;2023-05-23T12:48:52;102512.38;;;26.12;29.67
38616;BME280;24370;51.986;4.666;2023-05-23T12:51:18;102511.19;;;24.18;31.70
38616;BME280;24370;51.986;4.666;2023-05-23T12:53:44;102519.91;;;24.01;31.51
38616;BME280;24370;51.986;4.666;2023-05-23T12:58:35;102516.00;;;24.32;31.41
38616;BME280;24370;51.986;4.666;2023-05-23T13:01:01;102518.56;;;23.91;32.18
38616;BME280;24370;51.986;4.666;2023-05-23T13:03:27;102507.28;;;25.30;30.36
38616;BME280;24370;51.986;4.666;2023-05-23T13:05:55;102513.00;;;24.60;31.55
38616;BME280;24370;51.986;4.666;2023-05-23T13:08:24;102504.75;;;25.47;30.36
38616;BME280;24370;51.986;4.666;2023-05-23T13:10:52;102503.75;;;24.89;30.49
38616;BME280;24370;51.986;4.666;2023-05-23T13:13:17;102505.16;;;25.76;29.98
38616;BME280;24370;51.986;4.666;2023-05-23T13:15:43;102508.34;;;25.84;29.47
38616;BME280;24370;51.986;4.666;2023-05-23T13:18:09;102514.44;;;24.89;30.60
38616;BME280;24370;51.986;4.666;2023-05-23T13:20:34;102509.44;;;25.21;30.40